createdAt,value
2023-03-01T00:02:12.102Z,20.49
2023-03-01T00:04:38.575Z,20.48
2023-03-01T00:07:05.008Z,20.50
2023-03-01T00:09:31.451Z,20.48
2023-03-01T00:11:57.893Z,20.48
2023-03-01T00:14:24.898Z,20.48
2023-03-01T00:16:51.373Z,20.48
2023-03-01T00:19:18.362Z,20.46
2023-03-01T00:21:44.766Z,20.48
2023-03-01T00:24:11.498Z,20.46
2023-03-01T00:26:38.103Z,20.48
2023-03-01T00:29:04.562Z,20.46
2023-03-01T00:31:31.515Z,20.46
2023-03-01T00:33:58.516Z,20.47
2023-03-01T00:36:29.275Z,20.46
2023-03-01T00:38:56.164Z,20.46
2023-03-01T00:41:27.578Z,20.45
2023-03-01T00:43:54.080Z,20.47
2023-03-01T00:46:21.460Z,20.45
2023-03-01T00:48:47.911Z,20.45
2023-03-01T00:51:18.072Z,20.45
2023-03-01T00:53:44.476Z,20.45
2023-03-01T00:56:11.583Z,20.45
2023-03-01T00:58:38.339Z,20.44
2023-03-01T01:01:08.490Z,20.45
2023-03-01T01:03:34.881Z,20.44
2023-03-01T01:06:10.307Z,20.44
2023-03-01T01:08:36.680Z,20.44
2023-03-01T01:11:03.110Z,20.44
2023-03-01T01:13:29.519Z,20.44
2023-03-01T01:15:55.977Z,20.43
2023-03-01T01:18:22.472Z,20.43
2023-03-01T01:20:48.977Z,20.43
2023-03-01T01:23:15.521Z,20.44
2023-03-01T01:25:42.012Z,20.43
2023-03-01T01:28:08.471Z,20.42
2023-03-01T01:30:34.904Z,20.42
2023-03-01T01:33:01.326Z,20.42
2023-03-01T01:35:28.442Z,20.43
2023-03-01T01:37:54.979Z,20.43
2023-03-01T01:40:21.373Z,20.43
2023-03-01T01:42:47.835Z,20.42
2023-03-01T01:45:40.970Z,20.43
2023-03-01T01:48:13.960Z,20.42
2023-03-01T01:50:40.748Z,20.42
2023-03-01T01:53:10.783Z,20.41
2023-03-01T01:55:37.533Z,20.41
2023-03-01T01:58:04.688Z,20.42
2023-03-01T02:00:31.137Z,20.41
2023-03-01T02:02:58.701Z,20.41
2023-03-01T02:05:26.823Z,20.40
2023-03-01T02:07:56.976Z,20.40
2023-03-01T02:10:23.408Z,20.40
2023-03-01T02:12:49.861Z,20.40
2023-03-01T02:15:16.378Z,20.40
2023-03-01T02:17:42.795Z,20.40
2023-03-01T02:20:16.163Z,20.40
2023-03-01T02:22:42.664Z,20.40
2023-03-01T02:25:13.664Z,20.39
2023-03-01T02:27:49.448Z,20.41
2023-03-01T02:30:16.145Z,20.41
2023-03-01T02:32:42.788Z,20.40
2023-03-01T02:35:10.370Z,20.40
2023-03-01T02:37:36.853Z,20.40
2023-03-01T02:40:06.972Z,20.39
2023-03-01T02:42:35.056Z,20.40
2023-03-01T02:45:01.512Z,20.38
2023-03-01T02:47:27.972Z,20.39
2023-03-01T02:49:54.413Z,20.38
2023-03-01T02:52:41.121Z,20.39
2023-03-01T02:55:15.188Z,20.39
2023-03-01T02:57:42.800Z,20.37
2023-03-01T03:00:10.725Z,20.39
2023-03-01T03:02:37.452Z,20.36
2023-03-01T03:05:11.152Z,20.36
2023-03-01T03:07:38.032Z,20.35
2023-03-01T03:10:05.116Z,20.33
2023-03-01T03:12:31.621Z,20.31
2023-03-01T03:14:58.142Z,20.28
2023-03-01T03:17:24.623Z,20.28
2023-03-01T03:19:51.161Z,20.25
2023-03-01T03:22:17.661Z,20.24
2023-03-01T03:24:44.055Z,20.20
2023-03-01T03:27:10.494Z,20.19
2023-03-01T03:29:36.952Z,20.15
2023-03-01T03:32:04.174Z,20.12
2023-03-01T03:34:31.017Z,20.10
2023-03-01T03:37:00.373Z,20.08
2023-03-01T03:39:27.588Z,20.07
2023-03-01T03:41:54.501Z,20.03
2023-03-01T03:44:21.416Z,20.01
2023-03-01T03:46:47.828Z,20.01
2023-03-01T03:49:14.273Z,19.99
2023-03-01T03:51:40.673Z,20.02
2023-03-01T03:54:07.133Z,20.03
2023-03-01T03:56:33.977Z,20.07
2023-03-01T03:59:00.529Z,20.14
2023-03-01T04:01:27.313Z,20.21
2023-03-01T04:03:55.501Z,20.33
2023-03-01T04:06:21.956Z,20.48
2023-03-01T04:08:52.095Z,20.62
2023-03-01T04:11:27.730Z,20.77
2023-03-01T04:13:55.038Z,20.94
2023-03-01T04:16:21.756Z,21.14
2023-03-01T04:18:48.469Z,21.31
2023-03-01T04:21:15.134Z,21.45
2023-03-01T04:23:41.971Z,21.57
2023-03-01T04:26:08.531Z,21.65
2023-03-01T04:28:40.949Z,21.72
2023-03-01T04:31:14.278Z,21.75
2023-03-01T04:33:41.587Z,21.78
2023-03-01T04:36:09.830Z,21.79
2023-03-01T04:38:38.180Z,21.84
2023-03-01T04:41:05.555Z,21.84
2023-03-01T04:43:31.971Z,21.85
2023-03-01T04:46:03.827Z,21.84
2023-03-01T04:48:31.215Z,21.83
2023-03-01T04:50:57.637Z,21.80
2023-03-01T04:53:24.148Z,21.73
2023-03-01T04:55:50.654Z,21.70
2023-03-01T04:58:17.106Z,21.67
2023-03-01T05:00:43.603Z,21.63
2023-03-01T05:03:10.096Z,21.61
2023-03-01T05:05:37.593Z,21.57
2023-03-01T05:08:05.224Z,21.53
2023-03-01T05:10:32.518Z,21.49
2023-03-01T05:12:59.335Z,21.43
2023-03-01T05:15:29.275Z,21.38
2023-03-01T05:17:56.313Z,21.31
2023-03-01T05:20:25.910Z,21.26
2023-03-01T05:22:52.576Z,21.21
2023-03-01T05:25:19.100Z,21.16
2023-03-01T05:27:45.519Z,21.13
2023-03-01T05:30:15.090Z,21.10
2023-03-01T05:32:45.425Z,21.07
2023-03-01T05:35:14.211Z,21.02
2023-03-01T05:37:47.345Z,20.98
2023-03-01T05:40:17.762Z,20.96
2023-03-01T05:42:44.861Z,20.92
2023-03-01T05:45:11.577Z,20.90
2023-03-01T05:47:38.029Z,20.86
2023-03-01T05:50:06.645Z,20.83
2023-03-01T05:52:33.133Z,20.81
2023-03-01T05:54:59.629Z,20.80
2023-03-01T05:57:26.883Z,20.76
2023-03-01T05:59:53.280Z,20.75
2023-03-01T06:02:19.642Z,20.73
2023-03-01T06:04:46.298Z,20.73
2023-03-01T06:07:12.761Z,20.68
2023-03-01T06:09:39.143Z,20.65
2023-03-01T06:12:06.078Z,20.59
2023-03-01T06:14:32.506Z,20.56
2023-03-01T06:16:59.223Z,20.50
2023-03-01T06:19:25.629Z,20.45
2023-03-01T06:21:52.176Z,20.43
2023-03-01T06:24:18.557Z,20.39
2023-03-01T06:26:44.953Z,20.33
2023-03-01T06:29:11.442Z,20.30
2023-03-01T06:31:37.961Z,20.29
2023-03-01T06:34:04.363Z,20.26
2023-03-01T06:36:36.591Z,20.21
2023-03-01T06:39:03.025Z,20.17
2023-03-01T06:41:29.472Z,20.11
2023-03-01T06:43:55.881Z,20.04
2023-03-01T06:46:22.597Z,19.94
2023-03-01T06:48:49.056Z,19.92
2023-03-01T06:51:15.562Z,19.94
2023-03-01T06:53:41.938Z,20.00
2023-03-01T06:56:08.413Z,20.05
2023-03-01T06:58:35.622Z,20.06
2023-03-01T07:01:08.226Z,20.06
2023-03-01T07:03:35.134Z,20.08
2023-03-01T07:06:01.642Z,20.13
2023-03-01T07:08:28.234Z,20.12
2023-03-01T07:10:58.019Z,20.12
2023-03-01T07:13:24.467Z,20.11
2023-03-01T07:15:50.952Z,20.14
2023-03-01T07:18:17.428Z,20.16
2023-03-01T07:20:43.880Z,20.13
2023-03-01T07:23:10.305Z,20.12
2023-03-01T07:25:36.787Z,20.12
2023-03-01T07:28:03.251Z,20.13
2023-03-01T07:30:29.735Z,20.14
2023-03-01T07:32:56.559Z,20.14
2023-03-01T07:35:23.888Z,20.15
2023-03-01T07:37:50.400Z,20.15
2023-03-01T07:40:16.853Z,20.17
2023-03-01T07:42:48.673Z,20.17
2023-03-01T07:45:15.144Z,20.19
2023-03-01T07:47:44.075Z,20.19
2023-03-01T07:50:10.932Z,20.19
2023-03-01T07:52:40.393Z,20.20
2023-03-01T07:55:07.096Z,20.24
2023-03-01T07:57:35.942Z,20.28
2023-03-01T08:00:06.036Z,20.30
2023-03-01T08:02:32.728Z,20.34
2023-03-01T08:05:01.889Z,20.39
2023-03-01T08:07:28.297Z,20.45
2023-03-01T08:09:57.330Z,20.51
2023-03-01T08:12:23.829Z,20.57
2023-03-01T08:14:50.394Z,20.60
2023-03-01T08:17:19.285Z,20.62
2023-03-01T08:19:45.850Z,20.65
2023-03-01T08:22:12.296Z,20.69
2023-03-01T08:24:38.813Z,20.74
2023-03-01T08:27:05.295Z,20.76
2023-03-01T08:29:31.998Z,20.80
2023-03-01T08:31:58.560Z,20.83
2023-03-01T08:34:25.081Z,20.86
2023-03-01T08:36:52.792Z,20.87
2023-03-01T08:39:23.118Z,20.89
2023-03-01T08:41:51.074Z,20.91
2023-03-01T08:44:22.010Z,20.92
2023-03-01T08:46:51.054Z,20.92
2023-03-01T08:49:19.405Z,20.90
2023-03-01T08:51:46.011Z,20.90
2023-03-01T08:54:13.272Z,20.91
2023-03-01T08:56:39.783Z,20.89
2023-03-01T08:59:06.213Z,20.90
2023-03-01T09:01:37.172Z,20.89
2023-03-01T09:04:04.111Z,20.89
2023-03-01T09:06:37.036Z,20.88
2023-03-01T09:09:03.783Z,20.89
2023-03-01T09:11:30.629Z,20.89
2023-03-01T09:13:57.206Z,20.90
2023-03-01T09:16:26.513Z,20.90
2023-03-01T09:18:55.003Z,20.89
2023-03-01T09:21:39.578Z,20.89
2023-03-01T09:24:07.162Z,20.88
2023-03-01T09:26:39.860Z,20.87
2023-03-01T09:29:10.739Z,20.86
2023-03-01T09:31:37.651Z,20.86
2023-03-01T09:34:04.266Z,20.88
2023-03-01T09:36:31.002Z,20.90
2023-03-01T09:38:59.066Z,20.90
2023-03-01T09:41:35.021Z,20.87
2023-03-01T09:44:05.752Z,20.86
2023-03-01T09:46:33.171Z,20.87
2023-03-01T09:49:00.798Z,20.87
2023-03-01T09:51:27.935Z,20.87
2023-03-01T09:53:55.652Z,20.87
2023-03-01T09:56:25.246Z,20.86
2023-03-01T09:59:24.009Z,20.85
2023-03-01T10:02:00.622Z,20.88
2023-03-01T10:04:30.249Z,20.89
2023-03-01T10:07:02.547Z,20.88
2023-03-01T10:09:32.562Z,20.89
2023-03-01T10:11:58.973Z,20.90
2023-03-01T10:14:52.466Z,20.91
2023-03-01T10:17:37.599Z,20.95
2023-03-01T10:20:22.789Z,20.98
2023-03-01T10:22:53.323Z,21.00
2023-03-01T10:25:23.908Z,20.99
2023-03-01T10:27:52.442Z,21.03
2023-03-01T10:30:35.213Z,21.06
2023-03-01T10:33:03.068Z,21.08
2023-03-01T10:35:38.404Z,21.08
2023-03-01T10:38:08.816Z,21.09
2023-03-01T10:40:35.541Z,21.09
2023-03-01T10:43:05.777Z,21.11
2023-03-01T10:45:33.779Z,21.11
2023-03-01T10:48:09.262Z,21.11
2023-03-01T10:50:35.771Z,21.12
2023-03-01T10:53:02.756Z,21.12
2023-03-01T10:55:39.334Z,21.14
2023-03-01T10:58:08.965Z,21.13
2023-03-01T11:00:35.537Z,21.11
2023-03-01T11:03:01.950Z,21.09
2023-03-01T11:06:32.366Z,21.10
2023-03-01T11:08:59.735Z,21.10
2023-03-01T11:11:52.722Z,21.10
2023-03-01T11:20:36.466Z,20.96
2023-03-01T11:23:04.553Z,20.96
2023-03-01T11:25:33.145Z,20.91
2023-03-01T11:28:14.456Z,20.95
2023-03-01T11:31:09.112Z,20.94
2023-03-01T11:34:15.181Z,20.95
2023-03-01T11:36:58.651Z,20.96
2023-03-01T11:39:29.129Z,20.92
2023-03-01T11:42:21.983Z,20.91
2023-03-01T11:44:50.390Z,20.91
2023-03-01T11:47:41.170Z,20.91
2023-03-01T11:50:07.856Z,20.95
2023-03-01T11:52:37.116Z,20.93
2023-03-01T11:55:19.225Z,20.91
2023-03-01T11:57:48.720Z,20.91
2023-03-01T12:00:17.555Z,20.89
2023-03-01T12:03:02.395Z,20.85
2023-03-01T12:05:38.156Z,20.83
2023-03-01T12:08:11.218Z,20.83
2023-03-01T12:10:43.915Z,20.86
2023-03-01T12:13:29.108Z,20.89
2023-03-01T12:15:55.621Z,20.88
2023-03-01T12:18:34.613Z,20.88
2023-03-01T12:21:10.468Z,20.89
2023-03-01T12:23:52.185Z,20.90
2023-03-01T12:26:28.207Z,20.89
2023-03-01T12:28:57.671Z,20.90
2023-03-01T12:31:29.397Z,20.90
2023-03-01T12:34:14.867Z,20.88
2023-03-01T12:37:14.124Z,20.87
2023-03-01T12:39:40.630Z,20.91
2023-03-01T12:42:26.982Z,20.90
2023-03-01T12:45:02.696Z,20.93
2023-03-01T12:47:35.460Z,20.94
2023-03-01T12:50:12.348Z,20.94
2023-03-01T12:52:46.072Z,20.93
2023-03-01T12:55:23.005Z,20.96
2023-03-01T12:57:53.466Z,20.96
2023-03-01T13:00:31.500Z,20.83
2023-03-01T13:03:09.658Z,20.77
2023-03-01T13:05:59.416Z,20.70
2023-03-01T13:08:45.378Z,20.62
2023-03-01T13:11:22.248Z,20.56
2023-03-01T13:13:50.011Z,20.49
2023-03-01T13:16:24.377Z,20.42
2023-03-01T13:18:52.961Z,20.38
2023-03-01T13:21:30.221Z,20.36
2023-03-01T13:23:56.643Z,20.33
2023-03-01T13:26:23.172Z,20.31
2023-03-01T13:28:51.068Z,20.33
2023-03-01T13:31:20.517Z,20.40
2023-03-01T13:33:50.741Z,20.44
2023-03-01T13:36:37.525Z,20.47
2023-03-01T13:39:04.866Z,20.49
2023-03-01T13:41:43.490Z,20.52
2023-03-01T13:44:13.043Z,20.54
2023-03-01T13:46:39.649Z,20.57
2023-03-01T13:49:06.199Z,20.56
2023-03-01T13:51:32.600Z,20.59
2023-03-01T13:53:59.024Z,20.61
2023-03-01T13:56:26.872Z,20.62
2023-03-01T13:58:54.221Z,20.60
2023-03-01T14:01:25.045Z,20.55
2023-03-01T14:03:51.626Z,20.52
2023-03-01T14:06:21.304Z,20.51
2023-03-01T14:08:49.382Z,20.50
2023-03-01T14:11:15.809Z,20.46
2023-03-01T14:13:45.356Z,20.46
2023-03-01T14:16:14.984Z,20.45
2023-03-01T14:18:41.425Z,20.49
2023-03-01T14:21:08.562Z,20.50
2023-03-01T14:23:36.700Z,20.50
2023-03-01T14:26:03.199Z,20.45
2023-03-01T14:28:30.548Z,20.43
2023-03-01T14:30:57.892Z,20.41
2023-03-01T14:33:30.608Z,20.44
2023-03-01T14:36:04.435Z,20.50
2023-03-01T14:38:47.356Z,20.54
2023-03-01T14:41:17.928Z,20.57
2023-03-01T14:43:53.339Z,20.61
2023-03-01T14:46:40.133Z,20.65
2023-03-01T14:49:06.628Z,20.67
2023-03-01T14:51:39.517Z,20.70
2023-03-01T14:54:32.254Z,20.72
2023-03-01T14:57:00.389Z,20.72
2023-03-01T14:59:26.858Z,20.74
2023-03-01T15:01:57.087Z,20.77
2023-03-01T15:04:23.732Z,20.77
2023-03-01T15:06:53.287Z,20.77
2023-03-01T15:09:19.744Z,20.78
2023-03-01T15:11:46.173Z,20.78
2023-03-01T15:14:29.082Z,20.79
2023-03-01T15:16:55.806Z,20.79
2023-03-01T15:19:22.404Z,20.78
2023-03-01T15:21:49.701Z,20.79
2023-03-01T15:24:21.710Z,20.78
2023-03-01T15:26:52.165Z,20.78
2023-03-01T15:29:22.546Z,20.79
2023-03-01T15:31:58.430Z,20.78
2023-03-01T15:34:26.084Z,20.79
2023-03-01T15:36:53.277Z,20.80
2023-03-01T15:39:31.961Z,20.79
2023-03-01T15:41:58.427Z,20.78
2023-03-01T15:44:42.631Z,20.78
2023-03-01T15:47:22.720Z,20.79
2023-03-01T15:49:55.290Z,20.78
2023-03-01T15:52:48.598Z,20.79
2023-03-01T15:55:18.224Z,20.77
2023-03-01T15:57:44.691Z,20.78
2023-03-01T16:00:16.087Z,20.78
2023-03-01T16:02:42.762Z,20.78
2023-03-01T16:05:32.665Z,20.77
2023-03-01T16:08:02.243Z,20.77
2023-03-01T16:10:28.688Z,20.76
2023-03-01T16:12:55.666Z,20.76
2023-03-01T16:15:33.279Z,20.76
2023-03-01T16:17:59.812Z,20.76
2023-03-01T16:20:29.109Z,20.77
2023-03-01T16:23:01.870Z,20.76
2023-03-01T16:25:28.594Z,20.76
2023-03-01T16:27:56.274Z,20.77
2023-03-01T16:30:25.617Z,20.77
2023-03-01T16:32:52.225Z,20.76
2023-03-01T16:35:21.634Z,20.77
2023-03-01T16:37:48.081Z,20.75
2023-03-01T16:40:18.791Z,20.76
2023-03-01T16:42:45.252Z,20.75
2023-03-01T16:45:22.785Z,20.77
2023-03-01T16:47:55.837Z,20.76
2023-03-01T16:50:22.846Z,20.76
2023-03-01T16:52:49.468Z,20.74
2023-03-01T16:55:15.901Z,20.74
2023-03-01T16:57:42.332Z,20.74
2023-03-01T17:00:10.509Z,20.74
2023-03-01T17:02:36.932Z,20.75
2023-03-01T17:05:03.674Z,20.73
2023-03-01T17:07:34.197Z,20.73
2023-03-01T17:10:01.187Z,20.73
2023-03-01T17:12:28.537Z,20.72
2023-03-01T17:14:57.131Z,20.71
2023-03-01T17:17:23.559Z,20.71
2023-03-01T17:19:50.020Z,20.71
2023-03-01T17:22:21.550Z,20.70
2023-03-01T17:24:48.015Z,20.71
2023-03-01T17:27:14.876Z,20.70
2023-03-01T17:29:43.551Z,20.70
2023-03-01T17:32:10.229Z,20.69
2023-03-01T17:34:37.518Z,20.68
2023-03-01T17:37:06.639Z,20.67
2023-03-01T17:39:36.358Z,20.66
2023-03-01T17:42:05.054Z,20.66
2023-03-01T17:44:32.549Z,20.65
2023-03-01T17:46:59.151Z,20.64
2023-03-01T17:49:25.644Z,20.63
2023-03-01T17:51:52.084Z,20.62
2023-03-01T17:54:18.650Z,20.62
2023-03-01T17:56:45.401Z,20.61
2023-03-01T17:59:11.828Z,20.60
2023-03-01T18:01:39.131Z,20.60
2023-03-01T18:04:05.598Z,20.59
2023-03-01T18:06:32.289Z,20.59
2023-03-01T18:08:58.940Z,20.58
2023-03-01T18:11:25.356Z,20.59
2023-03-01T18:13:51.968Z,20.59
2023-03-01T18:16:18.870Z,20.58
2023-03-01T18:18:45.506Z,20.57
2023-03-01T18:21:12.046Z,20.56
2023-03-01T18:23:38.512Z,20.57
2023-03-01T18:26:06.148Z,20.56
2023-03-01T18:28:32.701Z,20.55
2023-03-01T18:30:59.807Z,20.54
2023-03-01T18:33:26.365Z,20.54
2023-03-01T18:35:52.877Z,20.54
2023-03-01T18:38:19.419Z,20.54
2023-03-01T18:40:45.960Z,20.53
2023-03-01T18:43:12.385Z,20.53
2023-03-01T18:45:38.836Z,20.53
2023-03-01T18:48:05.269Z,20.52
2023-03-01T18:50:31.694Z,20.52
2023-03-01T18:52:58.357Z,20.50
2023-03-01T18:55:24.948Z,20.51
2023-03-01T18:57:51.632Z,20.52
2023-03-01T19:00:18.641Z,20.51
2023-03-01T19:02:45.285Z,20.52
2023-03-01T19:05:12.061Z,20.51
2023-03-01T19:07:38.505Z,20.50
2023-03-01T19:10:05.098Z,20.51
2023-03-01T19:12:32.869Z,20.51
2023-03-01T19:15:00.419Z,20.50
2023-03-01T19:17:30.941Z,20.51
2023-03-01T19:19:57.733Z,20.50
2023-03-01T19:22:24.384Z,20.51
2023-03-01T19:24:51.104Z,20.50
2023-03-01T19:27:17.513Z,20.50
2023-03-01T19:29:43.927Z,20.50
2023-03-01T19:32:10.440Z,20.50
2023-03-01T19:34:38.353Z,20.49
2023-03-01T19:37:04.918Z,20.50
2023-03-01T19:39:31.345Z,20.49
2023-03-01T19:41:57.772Z,20.48
2023-03-01T19:44:25.214Z,20.49
2023-03-01T19:46:52.693Z,20.49
2023-03-01T19:49:21.775Z,20.48
2023-03-01T19:51:48.220Z,20.48
2023-03-01T19:54:19.858Z,20.48
2023-03-01T19:56:46.873Z,20.46
2023-03-01T19:59:13.435Z,20.47
2023-03-01T20:01:42.431Z,20.46
2023-03-01T20:04:12.957Z,20.45
2023-03-01T20:06:40.247Z,20.46
2023-03-01T20:09:19.344Z,20.44
2023-03-01T20:11:47.317Z,20.45
2023-03-01T20:14:13.757Z,20.45
2023-03-01T20:16:42.373Z,20.43
2023-03-01T20:19:08.933Z,20.44
2023-03-01T20:21:35.409Z,20.42
2023-03-01T20:24:01.899Z,20.43
2023-03-01T20:26:29.248Z,20.42
2023-03-01T20:28:57.001Z,20.40
2023-03-01T20:31:28.826Z,20.41
2023-03-01T20:33:56.219Z,20.39
2023-03-01T20:36:22.792Z,20.38
2023-03-01T20:38:49.714Z,20.38
2023-03-01T20:41:16.535Z,20.34
2023-03-01T20:43:43.216Z,20.33
2023-03-01T20:46:11.652Z,20.32
2023-03-01T20:48:38.234Z,20.31
2023-03-01T20:51:05.344Z,20.29
2023-03-01T20:53:31.752Z,20.28
2023-03-01T20:56:01.870Z,20.27
2023-03-01T20:58:32.658Z,20.26
2023-03-01T21:00:59.404Z,20.24
2023-03-01T21:03:25.887Z,20.22
2023-03-01T21:05:55.081Z,20.20
2023-03-01T21:08:21.494Z,20.19
2023-03-01T21:10:54.425Z,20.16
2023-03-01T21:13:20.872Z,20.16
2023-03-01T21:16:07.899Z,20.13
2023-03-01T21:18:34.841Z,20.12
2023-03-01T21:21:05.355Z,20.11
2023-03-01T21:23:32.308Z,20.10
2023-03-01T21:26:19.692Z,20.08
2023-03-01T21:28:46.221Z,20.06
2023-03-01T21:31:13.569Z,20.05
2023-03-01T21:33:40.469Z,20.05
2023-03-01T21:36:11.037Z,20.02
2023-03-01T21:38:38.240Z,20.01
2023-03-01T21:41:11.666Z,19.99
2023-03-01T21:43:38.414Z,19.97
2023-03-01T21:46:05.519Z,19.95
2023-03-01T21:48:31.949Z,19.93
2023-03-01T21:50:58.594Z,19.92
2023-03-01T21:53:25.539Z,19.91
2023-03-01T21:55:52.225Z,19.89
2023-03-01T21:58:19.106Z,19.88
2023-03-01T22:00:48.846Z,19.86
2023-03-01T22:03:15.603Z,19.84
2023-03-01T22:05:42.156Z,19.83
2023-03-01T22:08:08.709Z,19.81
2023-03-01T22:10:38.784Z,19.80
2023-03-01T22:13:05.235Z,19.78
2023-03-01T22:15:31.719Z,19.77
2023-03-01T22:17:58.206Z,19.76
2023-03-01T22:20:24.812Z,19.74
2023-03-01T22:22:51.386Z,19.72
2023-03-01T22:25:19.336Z,19.71
2023-03-01T22:27:45.738Z,19.68
2023-03-01T22:30:12.560Z,19.67
2023-03-01T22:32:39.124Z,19.66
2023-03-01T22:35:05.764Z,19.64
2023-03-01T22:37:32.325Z,19.63
2023-03-01T22:39:58.818Z,19.61
2023-03-01T22:42:25.236Z,19.60
2023-03-01T22:44:51.985Z,19.59
2023-03-01T22:47:18.570Z,19.58
2023-03-01T22:49:45.038Z,19.56
2023-03-01T22:52:11.663Z,19.55
2023-03-01T22:54:38.138Z,19.53
2023-03-01T22:57:04.565Z,19.52
2023-03-01T22:59:31.038Z,19.51
2023-03-01T23:01:57.544Z,19.49
2023-03-01T23:04:24.017Z,19.48
2023-03-01T23:06:50.716Z,19.47
2023-03-01T23:09:18.305Z,19.46
2023-03-01T23:11:44.776Z,19.44
2023-03-01T23:14:12.285Z,19.42
2023-03-01T23:16:38.777Z,19.42
2023-03-01T23:19:05.228Z,19.40
2023-03-01T23:21:31.667Z,19.38
2023-03-01T23:23:58.207Z,19.37
2023-03-01T23:26:27.902Z,19.36
2023-03-01T23:28:54.823Z,19.34
2023-03-01T23:31:21.390Z,19.33
2023-03-01T23:33:48.161Z,19.31
2023-03-01T23:36:18.377Z,19.30
2023-03-01T23:38:45.610Z,19.29
2023-03-01T23:41:12.529Z,19.29
2023-03-01T23:43:39.093Z,19.27
2023-03-01T23:46:07.699Z,19.25
2023-03-01T23:48:34.309Z,19.23
2023-03-01T23:51:04.467Z,19.23
2023-03-01T23:53:30.885Z,19.22
2023-03-01T23:55:57.310Z,19.20
2023-03-01T23:58:28.677Z,19.18
